Time;durP1;ratioP1;P1;durP2;ratioP2;P2;SDS_P1;SDS_P2;PMS_P1;PMS_P2;Temp;Humidity;BMP_temperature;BMP_pressure;BME280_temperature;BME280_humidity;BME280_pressure;Samples;Min_cycle;Max_cycle;Signal;HPM_P1;HPM_P2
2023/05/28 00:01:43;;;;;;;;;;;;;;;;;;5054963;28;19919;-74
2023/05/28 00:04:09;;;;;;;;;;;;;;;;;;5035039;28;19913;-75
2023/05/28 00:06:35;;;;;;;;;;;;;;;;;;5052911;28;20371;-74
2023/05/28 00:09:00;;;;;;;;;;;;;;;;;;5057888;28;19919;-73
2023/05/28 00:11:25;;;;;;;;;;;;;;;;;;5062757;28;20582;-73
2023/05/28 00:13:51;;;;;;;;;;;;;;;;;;5061103;28;20382;-74
2023/05/28 00:16:16;;;;;;;;;;;;;;;;;;5062673;28;19913;-74
2023/05/28 00:18:41;;;;;;;;;;;;;;;;;;5062415;28;19917;-75
2023/05/28 00:21:06;;;;;;;;;;;;;;;;;;5061352;28;19912;-75
2023/05/28 00:23:32;;;;;;;;;;;;;;;;;;5045825;28;19962;-74
2023/05/28 00:25:57;;;;;;;;;;;;;;;;;;5072533;28;19912;-74
2023/05/28 00:28:22;;;;;;;;;;;;;;;;;;5072469;28;20007;-76
2023/05/28 00:30:48;;;;;;;;;;;;;;;;;;5054641;28;19912;-75
2023/05/28 00:33:13;;;;;;;;;;;;;;;;;;5072478;28;19913;-76
2023/05/28 00:35:38;;;;;;;;;;;;;;;;;;5054715;28;19916;-76
2023/05/28 00:38:03;;;;;;;;;;;;;;;;;;5054299;28;20388;-76
2023/05/28 00:40:29;;;;;;;;;;;;;;;;;;5072684;28;19912;-75
2023/05/28 00:42:54;;;;;;;;;;;;;;;;;;5072286;28;19916;-76
2023/05/28 00:45:19;;;;;;;;;;;;;;;;;;5072377;28;20066;-75
2023/05/28 00:47:45;;;;;;;;;;;;;;;;;;5073637;28;19957;-76
2023/05/28 00:50:12;;;;;;;;;;;;;;;;;;5058002;28;19920;-76
2023/05/28 00:52:38;;;;;;;;;;;;;;;;;;5057919;28;19938;-76
2023/05/28 00:55:03;;;;;;;;;;;;;;;;;;5075992;28;19920;-76
2023/05/28 00:57:28;;;;;;;;;;;;;;;;;;5074488;28;19955;-76
2023/05/28 00:59:57;;;;;;;;;;;;;;;;;;5075867;28;20435;-76
2023/05/28 01:02:22;;;;;;;;;;;;;;;;;;5057828;28;20101;-76
2023/05/28 01:04:47;;;;;;;;;;;;;;;;;;5075656;28;20007;-76
2023/05/28 01:07:12;;;;;;;;;;;;;;;;;;5075507;28;19908;-76
2023/05/28 01:09:38;;;;;;;;;;;;;;;;;;5057931;28;19912;-76
2023/05/28 01:12:03;;;;;;;;;;;;;;;;;;5075441;28;20394;-76
2023/05/28 01:14:30;;;;;;;;;;;;;;;;;;5075543;28;20345;-76
2023/05/28 01:16:58;;;;;;;;;;;;;;;;;;5075452;28;19923;-75
2023/05/28 01:19:26;;;;;;;;;;;;;;;;;;5057559;28;19963;-76
2023/05/28 01:21:53;;;;;;;;;;;;;;;;;;5057840;28;19974;-75
2023/05/28 01:24:18;;;;;;;;;;;;;;;;;;5057433;28;19914;-73
2023/05/28 01:26:43;;;;;;;;;;;;;;;;;;5057271;28;19909;-73
2023/05/28 01:29:10;;;;;;;;;;;;;;;;;;5075293;28;19947;-74
2023/05/28 01:31:35;;;;;;;;;;;;;;;;;;5057401;28;19967;-74
2023/05/28 01:34:01;;;;;;;;;;;;;;;;;;5075317;28;19909;-75
2023/05/28 01:36:26;;;;;;;;;;;;;;;;;;5057160;28;19912;-75
2023/05/28 01:38:52;;;;;;;;;;;;;;;;;;5057069;28;19913;-75
2023/05/28 01:41:17;;;;;;;;;;;;;;;;;;5073644;28;20010;-76
2023/05/28 01:43:43;;;;;;;;;;;;;;;;;;5075104;28;19952;-76
2023/05/28 01:46:08;;;;;;;;;;;;;;;;;;5057008;28;20291;-76
2023/05/28 01:48:33;;;;;;;;;;;;;;;;;;5075246;28;19986;-74
2023/05/28 01:50:59;;;;;;;;;;;;;;;;;;5075141;28;19916;-74
2023/05/28 01:53:24;;;;;;;;;;;;;;;;;;5056910;28;19913;-74
2023/05/28 01:55:50;;;;;;;;;;;;;;;;;;5040400;28;20006;-74
2023/05/28 01:58:15;;;;;;;;;;;;;;;;;;5056721;28;20007;-73
2023/05/28 02:00:41;;;;;;;;;;;;;;;;;;5056158;28;19966;-76
2023/05/28 02:03:07;;;;;;;;;;;;;;;;;;5074855;28;19995;-74
2023/05/28 02:05:32;;;;;;;;;;;;;;;;;;5056787;28;20354;-74
2023/05/28 02:07:58;;;;;;;;;;;;;;;;;;5074525;28;19944;-73
2023/05/28 02:10:23;;;;;;;;;;;;;;;;;;5074545;28;19919;-74
2023/05/28 02:12:50;;;;;;;;;;;;;;;;;;5056366;28;19916;-74
2023/05/28 02:15:15;;;;;;;;;;;;;;;;;;5074909;28;19912;-74
2023/05/28 02:17:43;;;;;;;;;;;;;;;;;;5056519;28;19920;-75
2023/05/28 02:20:09;;;;;;;;;;;;;;;;;;5056629;28;19913;-74
2023/05/28 02:22:34;;;;;;;;;;;;;;;;;;5073568;28;19912;-74
2023/05/28 02:24:59;;;;;;;;;;;;;;;;;;5056361;28;19957;-76
2023/05/28 02:27:25;;;;;;;;;;;;;;;;;;5074183;28;20379;-75
2023/05/28 02:29:50;;;;;;;;;;;;;;;;;;5073267;28;19956;-76
2023/05/28 02:32:16;;;;;;;;;;;;;;;;;;5056710;28;19919;-75
2023/05/28 02:34:41;;;;;;;;;;;;;;;;;;5065333;28;20368;-74
2023/05/28 02:37:07;;;;;;;;;;;;;;;;;;5074244;28;19913;-74
2023/05/28 02:39:32;;;;;;;;;;;;;;;;;;5074113;28;19918;-74
2023/05/28 02:41:57;;;;;;;;;;;;;;;;;;5074064;28;20341;-74
2023/05/28 02:44:23;;;;;;;;;;;;;;;;;;5056193;28;19962;-74
2023/05/28 02:46:48;;;;;;;;;;;;;;;;;;5055946;28;19920;-73
2023/05/28 02:49:14;;;;;;;;;;;;;;;;;;5056150;28;19913;-74
2023/05/28 02:51:40;;;;;;;;;;;;;;;;;;5056173;28;20395;-74
2023/05/28 02:54:14;;;;;;;;;;;;;;;;;;5055981;28;19912;-74
2023/05/28 02:56:40;;;;;;;;;;;;;;;;;;5055822;28;19920;-75
2023/05/28 02:59:05;;;;;;;;;;;;;;;;;;5073929;28;19917;-74
2023/05/28 03:01:30;;;;;;;;;;;;;;;;;;5056019;28;19908;-75
2023/05/28 03:03:56;;;;;;;;;;;;;;;;;;5055962;28;19912;-75
2023/05/28 03:06:22;;;;;;;;;;;;;;;;;;5055795;28;19908;-75
2023/05/28 03:08:52;;;;;;;;;;;;;;;;;;5055806;28;19919;-74
2023/05/28 03:11:18;;;;;;;;;;;;;;;;;;5054388;28;19909;-73
2023/05/28 03:13:43;;;;;;;;;;;;;;;;;;5073868;28;20253;-74
2023/05/28 03:16:08;;;;;;;;;;;;;;;;;;5055328;28;19908;-73
2023/05/28 03:18:35;;;;;;;;;;;;;;;;;;5055019;28;20387;-73
2023/05/28 03:21:01;;;;;;;;;;;;;;;;;;5055362;28;19919;-74
2023/05/28 03:23:26;;;;;;;;;;;;;;;;;;5055314;28;19908;-74
2023/05/28 03:26:02;;;;;;;;;;;;;;;;;;5055166;28;20349;-74
2023/05/28 03:28:29;;;;;;;;;;;;;;;;;;5055315;28;19958;-74
2023/05/28 03:31:10;;;;;;;;;;;;;;;;;;5055254;28;19912;-75
2023/05/28 03:33:36;;;;;;;;;;;;;;;;;;5055169;28;19912;-75
2023/05/28 03:36:01;;;;;;;;;;;;;;;;;;5075719;28;19912;-76
2023/05/28 03:38:26;;;;;;;;;;;;;;;;;;5044245;28;19920;-84
2023/05/28 03:40:52;;;;;;;;;;;;;;;;;;5054923;28;20435;-82
2023/05/28 03:43:17;;;;;;;;;;;;;;;;;;5054880;28;19969;-81
2023/05/28 03:45:42;;;;;;;;;;;;;;;;;;5055131;28;19912;-79
2023/05/28 03:48:08;;;;;;;;;;;;;;;;;;5056789;28;19913;-84
2023/05/28 03:50:33;;;;;;;;;;;;;;;;;;5038357;28;19923;-84
2023/05/28 03:52:59;;;;;;;;;;;;;;;;;;5055061;28;19962;-82
2023/05/28 03:55:24;;;;;;;;;;;;;;;;;;5054150;28;19909;-85
2023/05/28 03:57:49;;;;;;;;;;;;;;;;;;5071193;28;19919;-81
2023/05/28 04:00:16;;;;;;;;;;;;;;;;;;5054822;28;19923;-80
2023/05/28 04:02:43;;;;;;;;;;;;;;;;;;5055616;28;20003;-82
2023/05/28 04:05:09;;;;;;;;;;;;;;;;;;5054691;28;20004;-84
2023/05/28 04:07:34;;;;;;;;;;;;;;;;;;5071278;28;19923;-83
2023/05/28 04:10:00;;;;;;;;;;;;;;;;;;5054567;28;19909;-83
2023/05/28 04:12:25;;;;;;;;;;;;;;;;;;5054484;28;20336;-82
2023/05/28 04:14:51;;;;;;;;;;;;;;;;;;5054509;28;19935;-82
2023/05/28 04:17:17;;;;;;;;;;;;;;;;;;5054990;28;20368;-83
2023/05/28 04:19:42;;;;;;;;;;;;;;;;;;5054946;28;19920;-85
2023/05/28 04:22:08;;;;;;;;;;;;;;;;;;5055625;28;19947;-83
2023/05/28 04:24:33;;;;;;;;;;;;;;;;;;5061508;28;19912;-86
2023/05/28 04:26:59;;;;;;;;;;;;;;;;;;5061468;28;19912;-81
2023/05/28 04:29:25;;;;;;;;;;;;;;;;;;5079455;28;19947;-86
2023/05/28 04:31:50;;;;;;;;;;;;;;;;;;5061367;28;19915;-77
2023/05/28 04:34:17;;;;;;;;;;;;;;;;;;5061307;28;19958;-79
2023/05/28 04:36:42;;;;;;;;;;;;;;;;;;5079253;28;20011;-79
2023/05/28 04:39:08;;;;;;;;;;;;;;;;;;5061046;28;20020;-78
2023/05/28 04:41:34;;;;;;;;;;;;;;;;;;5077979;28;19913;-80
2023/05/28 04:43:59;;;;;;;;;;;;;;;;;;5061143;28;20338;-84
2023/05/28 04:46:25;;;;;;;;;;;;;;;;;;5078957;28;19994;-82
2023/05/28 04:48:50;;;;;;;;;;;;;;;;;;5061265;28;19927;-86
2023/05/28 04:51:15;;;;;;;;;;;;;;;;;;5079024;28;19908;-87
2023/05/28 04:53:41;;;;;;;;;;;;;;;;;;5060980;28;20268;-88
2023/05/28 04:56:06;;;;;;;;;;;;;;;;;;5079126;28;19944;-87
2023/05/28 04:58:31;;;;;;;;;;;;;;;;;;5060979;28;19916;-87
2023/05/28 05:00:57;;;;;;;;;;;;;;;;;;5060067;28;19941;-79
2023/05/28 05:03:22;;;;;;;;;;;;;;;;;;5060916;28;19959;-79
2023/05/28 05:05:48;;;;;;;;;;;;;;;;;;5078917;28;19966;-79
2023/05/28 05:08:13;;;;;;;;;;;;;;;;;;5044252;28;19982;-79
2023/05/28 05:10:40;;;;;;;;;;;;;;;;;;5060440;28;19912;-80
2023/05/28 05:13:05;;;;;;;;;;;;;;;;;;5060719;28;19923;-79
2023/05/28 05:15:30;;;;;;;;;;;;;;;;;;5060696;28;19912;-80
2023/05/28 05:17:56;;;;;;;;;;;;;;;;;;5060904;28;19912;-85
2023/05/28 05:20:22;;;;;;;;;;;;;;;;;;5062144;28;19916;-83
2023/05/28 05:22:47;;;;;;;;;;;;;;;;;;5078914;28;20313;-85
2023/05/28 05:25:13;;;;;;;;;;;;;;;;;;5060465;28;19913;-83
2023/05/28 05:27:41;;;;;;;;;;;;;;;;;;5060868;28;19961;-83
2023/05/28 05:30:06;;;;;;;;;;;;;;;;;;5060663;28;19912;-84
2023/05/28 05:32:32;;;;;;;;;;;;;;;;;;5060622;28;19912;-84
2023/05/28 05:34:57;;;;;;;;;;;;;;;;;;5057265;28;20298;-82
2023/05/28 05:37:57;;;;;;;;;;;;;;;;;;5074825;28;20257;-84
2023/05/28 05:40:28;;;;;;;;;;;;;;;;;;5057318;28;20355;-85
2023/05/28 05:43:04;;;;;;;;;;;;;;;;;;5075311;28;19934;-86
2023/05/28 05:45:30;;;;;;;;;;;;;;;;;;5075139;28;20415;-86
2023/05/28 05:47:55;;;;;;;;;;;;;;;;;;5057025;28;20398;-85
2023/05/28 05:50:20;;;;;;;;;;;;;;;;;;5057115;28;19946;-86
2023/05/28 05:52:46;;;;;;;;;;;;;;;;;;5057216;28;19912;-87
2023/05/28 05:55:11;;;;;;;;;;;;;;;;;;5057105;28;20008;-84
2023/05/28 05:57:36;;;;;;;;;;;;;;;;;;5076031;28;19913;-80
2023/05/28 06:00:03;;;;;;;;;;;;;;;;;;5056826;28;20499;-82
2023/05/28 06:02:38;;;;;;;;;;;;;;;;;;5074848;28;19919;-80
2023/05/28 06:05:06;;;;;;;;;;;;;;;;;;5056638;28;19912;-81
2023/05/28 06:07:55;;;;;;;;;;;;;;;;;;5070643;28;19923;-80
2023/05/28 06:10:38;;;;;;;;;;;;;;;;;;5057002;28;19919;-84
2023/05/28 06:13:04;;;;;;;;;;;;;;;;;;5056535;28;20291;-82
2023/05/28 06:15:31;;;;;;;;;;;;;;;;;;5053489;28;21144;-82
2023/05/28 06:17:56;;;;;;;;;;;;;;;;;;5062654;28;20401;-80
2023/05/28 06:20:21;;;;;;;;;;;;;;;;;;5052850;28;19912;-80
2023/05/28 06:22:46;;;;;;;;;;;;;;;;;;5070945;28;19913;-82
2023/05/28 06:25:12;;;;;;;;;;;;;;;;;;5052231;28;19997;-86
2023/05/28 06:27:38;;;;;;;;;;;;;;;;;;5042488;28;20283;-84
2023/05/28 06:30:04;;;;;;;;;;;;;;;;;;5062069;28;19939;-85
2023/05/28 06:32:30;;;;;;;;;;;;;;;;;;5070702;28;19905;-83
2023/05/28 06:34:55;;;;;;;;;;;;;;;;;;5045003;28;19919;-83
2023/05/28 06:37:21;;;;;;;;;;;;;;;;;;5042950;28;20352;-81
2023/05/28 06:39:46;;;;;;;;;;;;;;;;;;5024947;28;19924;-82
2023/05/28 06:42:12;;;;;;;;;;;;;;;;;;5047360;28;19919;-82
2023/05/28 06:44:45;;;;;;;;;;;;;;;;;;5059536;28;19912;-76
2023/05/28 06:47:15;;;;;;;;;;;;;;;;;;5075501;28;20425;-77
2023/05/28 06:49:40;;;;;;;;;;;;;;;;;;5031651;28;19912;-78
2023/05/28 06:52:06;;;;;;;;;;;;;;;;;;5031795;28;19916;-78
2023/05/28 06:54:31;;;;;;;;;;;;;;;;;;5030214;28;19909;-80
2023/05/28 06:56:57;;;;;;;;;;;;;;;;;;5030045;28;19999;-79
2023/05/28 06:59:40;;;;;;;;;;;;;;;;;;5030057;28;20398;-78
2023/05/28 07:02:29;;;;;;;;;;;;;;;;;;5029547;28;20392;-80
2023/05/28 07:05:17;;;;;;;;;;;;;;;;;;5040333;28;19913;-77
2023/05/28 07:07:43;;;;;;;;;;;;;;;;;;5030063;28;20439;-79
2023/05/28 07:10:08;;;;;;;;;;;;;;;;;;5031521;28;19913;-76
2023/05/28 07:12:34;;;;;;;;;;;;;;;;;;5036688;28;19912;-81
2023/05/28 07:14:59;;;;;;;;;;;;;;;;;;5036441;28;20004;-81
2023/05/28 07:17:26;;;;;;;;;;;;;;;;;;5050887;28;19974;-81
2023/05/28 07:19:52;;;;;;;;;;;;;;;;;;5048593;28;19916;-82
2023/05/28 07:22:27;;;;;;;;;;;;;;;;;;5050764;28;19917;-81
2023/05/28 07:24:53;;;;;;;;;;;;;;;;;;5051565;28;19954;-80
2023/05/28 07:27:18;;;;;;;;;;;;;;;;;;5052094;28;19962;-82
2023/05/28 07:29:43;;;;;;;;;;;;;;;;;;5067277;28;20280;-81
2023/05/28 07:32:11;;;;;;;;;;;;;;;;;;5059952;28;19909;-80
2023/05/28 07:34:41;;;;;;;;;;;;;;;;;;5050751;28;19923;-82
2023/05/28 07:37:06;;;;;;;;;;;;;;;;;;5051533;28;19912;-81
2023/05/28 07:39:32;;;;;;;;;;;;;;;;;;5043592;28;20300;-80
2023/05/28 07:41:57;;;;;;;;;;;;;;;;;;5051613;28;19920;-81
2023/05/28 07:44:26;;;;;;;;;;;;;;;;;;5044985;28;19970;-80
2023/05/28 07:46:52;;;;;;;;;;;;;;;;;;5040267;28;20280;-81
2023/05/28 07:49:40;;;;;;;;;;;;;;;;;;5063327;28;19919;-76
2023/05/28 07:52:06;;;;;;;;;;;;;;;;;;5041504;28;19913;-78
2023/05/28 07:54:31;;;;;;;;;;;;;;;;;;5029360;28;19924;-76
2023/05/28 07:56:57;;;;;;;;;;;;;;;;;;5026863;28;19915;-76
2023/05/28 07:59:28;;;;;;;;;;;;;;;;;;5027881;28;20535;-77
2023/05/28 08:01:54;;;;;;;;;;;;;;;;;;5027693;28;19959;-77
2023/05/28 08:04:20;;;;;;;;;;;;;;;;;;5027738;28;19940;-76
2023/05/28 08:06:45;;;;;;;;;;;;;;;;;;5028121;28;19916;-78
2023/05/28 08:09:14;;;;;;;;;;;;;;;;;;5039816;28;19920;-77
2023/05/28 08:11:40;;;;;;;;;;;;;;;;;;5044951;28;19917;-76
2023/05/28 08:14:05;;;;;;;;;;;;;;;;;;5048649;28;19919;-77
2023/05/28 08:16:31;;;;;;;;;;;;;;;;;;5048239;28;19918;-76
2023/05/28 08:19:15;;;;;;;;;;;;;;;;;;5068680;28;19938;-76
2023/05/28 08:21:43;;;;;;;;;;;;;;;;;;5050721;28;19918;-76
2023/05/28 08:24:10;;;;;;;;;;;;;;;;;;5050822;28;19916;-75
2023/05/28 08:26:36;;;;;;;;;;;;;;;;;;5050655;28;19965;-78
2023/05/28 08:29:01;;;;;;;;;;;;;;;;;;5068661;28;19912;-76
2023/05/28 08:31:29;;;;;;;;;;;;;;;;;;5050937;28;19955;-76
2023/05/28 08:34:15;;;;;;;;;;;;;;;;;;5050844;28;19920;-76
2023/05/28 08:36:42;;;;;;;;;;;;;;;;;;5050550;28;19954;-76
2023/05/28 08:39:12;;;;;;;;;;;;;;;;;;5050717;28;19923;-75
2023/05/28 08:41:40;;;;;;;;;;;;;;;;;;5050363;28;19912;-77
2023/05/28 08:44:05;;;;;;;;;;;;;;;;;;5068245;28;20003;-76
2023/05/28 08:46:30;;;;;;;;;;;;;;;;;;5050714;28;19918;-76
2023/05/28 08:49:21;;;;;;;;;;;;;;;;;;5052421;28;19913;-80
2023/05/28 08:51:47;;;;;;;;;;;;;;;;;;5050553;28;20331;-76
2023/05/28 08:54:13;;;;;;;;;;;;;;;;;;5050077;28;19913;-75
2023/05/28 08:56:39;;;;;;;;;;;;;;;;;;5067181;28;20356;-77
2023/05/28 08:59:04;;;;;;;;;;;;;;;;;;5048242;28;19920;-78
2023/05/28 09:01:29;;;;;;;;;;;;;;;;;;5048185;28;19912;-76
2023/05/28 09:04:04;;;;;;;;;;;;;;;;;;5065814;28;20010;-76
2023/05/28 09:06:35;;;;;;;;;;;;;;;;;;5048136;28;20577;-75
2023/05/28 09:09:00;;;;;;;;;;;;;;;;;;5047986;28;19913;-76
2023/05/28 09:11:43;;;;;;;;;;;;;;;;;;5051589;28;20318;-75
2023/05/28 09:14:10;;;;;;;;;;;;;;;;;;5051705;28;19913;-76
2023/05/28 09:16:36;;;;;;;;;;;;;;;;;;5051645;28;19966;-76
2023/05/28 09:19:06;;;;;;;;;;;;;;;;;;5051404;28;19959;-75
2023/05/28 09:21:32;;;;;;;;;;;;;;;;;;5050983;28;20368;-77
2023/05/28 09:23:58;;;;;;;;;;;;;;;;;;5051422;28;19908;-77
2023/05/28 09:26:39;;;;;;;;;;;;;;;;;;5069553;28;19978;-75
2023/05/28 09:29:24;;;;;;;;;;;;;;;;;;5051897;28;19912;-76
2023/05/28 09:31:50;;;;;;;;;;;;;;;;;;5069241;28;20028;-75
2023/05/28 09:34:15;;;;;;;;;;;;;;;;;;5050938;28;19952;-74
2023/05/28 09:36:41;;;;;;;;;;;;;;;;;;5069534;28;19908;-76
2023/05/28 09:39:07;;;;;;;;;;;;;;;;;;5069445;28;20394;-74
2023/05/28 09:41:33;;;;;;;;;;;;;;;;;;5051886;28;20210;-76
2023/05/28 09:43:59;;;;;;;;;;;;;;;;;;5069614;28;19945;-76
2023/05/28 09:46:24;;;;;;;;;;;;;;;;;;5068242;28;19913;-75
2023/05/28 09:48:50;;;;;;;;;;;;;;;;;;5069044;28;20651;-75
2023/05/28 09:51:15;;;;;;;;;;;;;;;;;;5051056;28;19912;-76
2023/05/28 09:53:40;;;;;;;;;;;;;;;;;;5068946;28;19912;-78
2023/05/28 09:56:06;;;;;;;;;;;;;;;;;;5050647;28;20389;-75
2023/05/28 09:58:34;;;;;;;;;;;;;;;;;;5068508;28;19924;-75
2023/05/28 10:01:00;;;;;;;;;;;;;;;;;;5068808;28;19931;-77
2023/05/28 10:03:26;;;;;;;;;;;;;;;;;;5069483;28;19919;-75
2023/05/28 10:05:51;;;;;;;;;;;;;;;;;;5070833;28;20007;-74
2023/05/28 10:08:17;;;;;;;;;;;;;;;;;;5070820;28;19920;-75
2023/05/28 10:10:42;;;;;;;;;;;;;;;;;;5052938;28;19912;-75
2023/05/28 10:13:09;;;;;;;;;;;;;;;;;;5070924;28;19931;-74
2023/05/28 10:15:35;;;;;;;;;;;;;;;;;;5070539;28;20481;-75
2023/05/28 10:18:01;;;;;;;;;;;;;;;;;;5070618;28;20010;-74
2023/05/28 10:20:26;;;;;;;;;;;;;;;;;;5070186;28;19920;-72
2023/05/28 10:22:51;;;;;;;;;;;;;;;;;;5070540;28;19912;-75
2023/05/28 10:25:17;;;;;;;;;;;;;;;;;;5053114;28;19912;-73
2023/05/28 10:27:42;;;;;;;;;;;;;;;;;;5070366;28;20002;-75
2023/05/28 10:30:07;;;;;;;;;;;;;;;;;;5070133;28;19958;-76
2023/05/28 10:32:34;;;;;;;;;;;;;;;;;;5069869;28;19966;-74
2023/05/28 10:34:59;;;;;;;;;;;;;;;;;;5070474;28;19919;-75
2023/05/28 10:37:25;;;;;;;;;;;;;;;;;;5070057;28;19916;-74
2023/05/28 10:39:50;;;;;;;;;;;;;;;;;;5070300;28;20509;-74
2023/05/28 10:42:15;;;;;;;;;;;;;;;;;;5069884;28;19913;-73
2023/05/28 10:44:40;;;;;;;;;;;;;;;;;;5070349;28;20371;-73
2023/05/28 10:47:06;;;;;;;;;;;;;;;;;;5069898;28;20007;-74
2023/05/28 10:49:31;;;;;;;;;;;;;;;;;;5070178;28;19916;-74
2023/05/28 10:51:56;;;;;;;;;;;;;;;;;;5070156;28;20002;-74
2023/05/28 10:54:22;;;;;;;;;;;;;;;;;;5049990;28;19917;-74
2023/05/28 10:56:48;;;;;;;;;;;;;;;;;;5067473;28;19913;-74
2023/05/28 10:59:13;;;;;;;;;;;;;;;;;;5069378;28;19917;-75
2023/05/28 11:01:38;;;;;;;;;;;;;;;;;;5069799;28;19908;-74
2023/05/28 11:04:03;;;;;;;;;;;;;;;;;;5069754;28;19915;-74
2023/05/28 11:06:29;;;;;;;;;;;;;;;;;;5052079;28;19908;-75
2023/05/28 11:08:54;;;;;;;;;;;;;;;;;;5069183;28;20338;-74
2023/05/28 11:11:20;;;;;;;;;;;;;;;;;;5064517;28;19959;-74
2023/05/28 11:13:45;;;;;;;;;;;;;;;;;;5070012;28;19919;-74
2023/05/28 11:16:11;;;;;;;;;;;;;;;;;;5068623;28;19994;-74
2023/05/28 11:18:36;;;;;;;;;;;;;;;;;;5051816;28;19920;-75
2023/05/28 11:21:01;;;;;;;;;;;;;;;;;;5069578;28;19961;-79
2023/05/28 11:23:26;;;;;;;;;;;;;;;;;;5069854;28;19919;-76
2023/05/28 11:25:52;;;;;;;;;;;;;;;;;;5069461;28;19915;-75
2023/05/28 11:28:17;;;;;;;;;;;;;;;;;;5069352;28;19920;-75
2023/05/28 11:30:42;;;;;;;;;;;;;;;;;;5065209;28;19916;-75
2023/05/28 11:33:07;;;;;;;;;;;;;;;;;;5048721;28;20299;-75
2023/05/28 11:35:32;;;;;;;;;;;;;;;;;;5048151;28;19913;-76
2023/05/28 11:37:59;;;;;;;;;;;;;;;;;;5049369;28;19913;-75
2023/05/28 11:40:24;;;;;;;;;;;;;;;;;;5051744;28;20797;-75
2023/05/28 11:42:50;;;;;;;;;;;;;;;;;;5049359;28;19912;-74
2023/05/28 11:45:15;;;;;;;;;;;;;;;;;;5049618;28;19962;-75
2023/05/28 11:47:43;;;;;;;;;;;;;;;;;;5049831;28;19916;-74
2023/05/28 11:50:09;;;;;;;;;;;;;;;;;;5048978;28;19908;-76
2023/05/28 11:52:34;;;;;;;;;;;;;;;;;;5070380;28;19912;-74
2023/05/28 11:55:01;;;;;;;;;;;;;;;;;;5069618;28;20260;-74
2023/05/28 11:57:26;;;;;;;;;;;;;;;;;;5069128;28;19998;-73
2023/05/28 11:59:51;;;;;;;;;;;;;;;;;;5068026;28;20027;-74
2023/05/28 12:02:18;;;;;;;;;;;;;;;;;;5067689;28;19916;-77
2023/05/28 12:04:43;;;;;;;;;;;;;;;;;;5060240;28;19983;-74
2023/05/28 12:07:08;;;;;;;;;;;;;;;;;;5060563;28;19912;-74
2023/05/28 12:09:34;;;;;;;;;;;;;;;;;;5068373;28;19966;-75
2023/05/28 12:12:01;;;;;;;;;;;;;;;;;;5049550;28;19912;-75
2023/05/28 12:14:26;;;;;;;;;;;;;;;;;;5061146;28;19912;-75
2023/05/28 12:16:51;;;;;;;;;;;;;;;;;;5069073;28;20275;-74
2023/05/28 12:19:16;;;;;;;;;;;;;;;;;;5068753;28;19928;-74
2023/05/28 12:21:42;;;;;;;;;;;;;;;;;;5067984;28;19919;-75
2023/05/28 12:24:07;;;;;;;;;;;;;;;;;;5068700;28;19913;-76
2023/05/28 12:26:32;;;;;;;;;;;;;;;;;;5060170;28;19912;-76
2023/05/28 12:28:57;;;;;;;;;;;;;;;;;;5049128;28;20014;-75
2023/05/28 12:31:23;;;;;;;;;;;;;;;;;;5049545;28;19927;-74
2023/05/28 12:33:48;;;;;;;;;;;;;;;;;;5066242;28;19925;-76
2023/05/28 12:36:13;;;;;;;;;;;;;;;;;;5068166;28;19912;-76
2023/05/28 12:38:38;;;;;;;;;;;;;;;;;;5067563;28;19916;-74
2023/05/28 12:41:04;;;;;;;;;;;;;;;;;;5068404;28;20296;-75
2023/05/28 12:43:30;;;;;;;;;;;;;;;;;;5051203;28;19913;-76
2023/05/28 12:45:55;;;;;;;;;;;;;;;;;;5072607;28;19938;-74
2023/05/28 12:48:20;;;;;;;;;;;;;;;;;;5070479;28;19935;-75
2023/05/28 12:50:46;;;;;;;;;;;;;;;;;;5069523;28;19908;-75
2023/05/28 12:53:11;;;;;;;;;;;;;;;;;;5069440;28;19913;-77
2023/05/28 12:55:36;;;;;;;;;;;;;;;;;;5072267;28;20253;-75
2023/05/28 12:58:01;;;;;;;;;;;;;;;;;;5071784;28;19947;-75
2023/05/28 13:00:27;;;;;;;;;;;;;;;;;;5070394;28;19924;-75
2023/05/28 13:02:52;;;;;;;;;;;;;;;;;;5069495;28;20769;-76
2023/05/28 13:05:17;;;;;;;;;;;;;;;;;;5067775;28;19919;-74
2023/05/28 13:07:43;;;;;;;;;;;;;;;;;;5071667;28;19916;-75
2023/05/28 13:10:08;;;;;;;;;;;;;;;;;;5052189;28;19912;-75
2023/05/28 13:12:36;;;;;;;;;;;;;;;;;;5047186;28;19913;-73
2023/05/28 13:15:01;;;;;;;;;;;;;;;;;;5066313;28;19916;-74
2023/05/28 13:17:27;;;;;;;;;;;;;;;;;;5068020;28;20387;-74
2023/05/28 13:19:53;;;;;;;;;;;;;;;;;;5045749;28;20292;-77
2023/05/28 13:22:18;;;;;;;;;;;;;;;;;;5036741;28;19915;-74
2023/05/28 13:24:43;;;;;;;;;;;;;;;;;;5051724;28;19962;-75
2023/05/28 13:27:09;;;;;;;;;;;;;;;;;;5068652;28;20384;-74
2023/05/28 13:29:34;;;;;;;;;;;;;;;;;;5073609;28;19908;-74
2023/05/28 13:31:59;;;;;;;;;;;;;;;;;;5068256;28;19912;-75
2023/05/28 13:34:25;;;;;;;;;;;;;;;;;;5068207;28;19916;-75
2023/05/28 13:36:50;;;;;;;;;;;;;;;;;;5070162;28;19912;-76
2023/05/28 13:39:15;;;;;;;;;;;;;;;;;;5053089;28;19962;-74
2023/05/28 13:41:40;;;;;;;;;;;;;;;;;;5062169;28;20378;-74
2023/05/28 13:44:06;;;;;;;;;;;;;;;;;;5070439;28;20351;-74
2023/05/28 13:46:31;;;;;;;;;;;;;;;;;;5069450;28;19961;-74
2023/05/28 13:48:57;;;;;;;;;;;;;;;;;;5069627;28;20283;-73
2023/05/28 13:51:22;;;;;;;;;;;;;;;;;;5070250;28;20003;-73
2023/05/28 13:53:48;;;;;;;;;;;;;;;;;;5071346;28;20004;-73
2023/05/28 13:56:13;;;;;;;;;;;;;;;;;;5069784;28;20300;-72
2023/05/28 13:58:38;;;;;;;;;;;;;;;;;;5068295;28;19916;-73
2023/05/28 14:01:04;;;;;;;;;;;;;;;;;;5063118;28;19961;-72
2023/05/28 14:03:29;;;;;;;;;;;;;;;;;;5060733;28;19921;-74
2023/05/28 14:05:54;;;;;;;;;;;;;;;;;;5059636;28;19912;-72
2023/05/28 14:08:20;;;;;;;;;;;;;;;;;;5061284;28;19908;-72
2023/05/28 14:10:45;;;;;;;;;;;;;;;;;;5042063;28;19916;-71
2023/05/28 14:13:10;;;;;;;;;;;;;;;;;;5060581;28;19920;-73
2023/05/28 14:15:36;;;;;;;;;;;;;;;;;;5041207;28;20272;-72
2023/05/28 14:18:01;;;;;;;;;;;;;;;;;;5060143;28;19916;-73
2023/05/28 14:20:27;;;;;;;;;;;;;;;;;;5060478;28;19921;-73
2023/05/28 14:22:52;;;;;;;;;;;;;;;;;;5059182;28;19913;-72
2023/05/28 14:25:17;;;;;;;;;;;;;;;;;;5061236;28;20414;-72
2023/05/28 14:27:43;;;;;;;;;;;;;;;;;;5065288;28;19912;-73
2023/05/28 14:30:08;;;;;;;;;;;;;;;;;;5068097;28;19934;-72
2023/05/28 14:32:33;;;;;;;;;;;;;;;;;;5064927;28;20022;-72
2023/05/28 14:34:59;;;;;;;;;;;;;;;;;;5070213;28;19939;-71
2023/05/28 14:37:24;;;;;;;;;;;;;;;;;;5064779;28;19974;-70
2023/05/28 14:39:49;;;;;;;;;;;;;;;;;;5037727;28;20262;-73
2023/05/28 14:42:15;;;;;;;;;;;;;;;;;;5055986;28;19917;-73
2023/05/28 14:44:40;;;;;;;;;;;;;;;;;;5066497;28;19912;-74
2023/05/28 14:47:05;;;;;;;;;;;;;;;;;;5050762;28;20377;-75
2023/05/28 14:49:30;;;;;;;;;;;;;;;;;;5068182;28;19955;-73
2023/05/28 14:51:56;;;;;;;;;;;;;;;;;;5067695;28;20321;-73
2023/05/28 14:54:21;;;;;;;;;;;;;;;;;;5067569;28;20539;-73
2023/05/28 14:56:46;;;;;;;;;;;;;;;;;;5050817;28;20332;-73
2023/05/28 14:59:12;;;;;;;;;;;;;;;;;;5050459;28;19923;-72
2023/05/28 15:01:37;;;;;;;;;;;;;;;;;;5069005;28;20368;-73
2023/05/28 15:04:02;;;;;;;;;;;;;;;;;;5069256;28;20042;-73
2023/05/28 15:06:28;;;;;;;;;;;;;;;;;;5068691;28;20398;-74
2023/05/28 15:08:53;;;;;;;;;;;;;;;;;;5050105;28;20057;-72
2023/05/28 15:11:18;;;;;;;;;;;;;;;;;;5068266;28;19912;-73
2023/05/28 15:13:43;;;;;;;;;;;;;;;;;;5068020;28;19981;-73
2023/05/28 15:16:09;;;;;;;;;;;;;;;;;;5067964;28;19913;-73
2023/05/28 15:18:34;;;;;;;;;;;;;;;;;;5068565;28;19916;-73
2023/05/28 15:21:00;;;;;;;;;;;;;;;;;;5068756;28;19913;-73
2023/05/28 15:23:25;;;;;;;;;;;;;;;;;;5069901;28;20009;-74
2023/05/28 15:25:51;;;;;;;;;;;;;;;;;;5069840;28;19974;-74
2023/05/28 15:28:16;;;;;;;;;;;;;;;;;;5069604;28;20287;-74
2023/05/28 15:30:41;;;;;;;;;;;;;;;;;;5069716;28;20452;-73
2023/05/28 15:33:06;;;;;;;;;;;;;;;;;;5069615;28;20290;-73
2023/05/28 15:35:32;;;;;;;;;;;;;;;;;;5069435;28;19916;-72
2023/05/28 15:37:57;;;;;;;;;;;;;;;;;;5069557;28;19916;-73
2023/05/28 15:40:22;;;;;;;;;;;;;;;;;;5034245;28;19916;-73
2023/05/28 15:42:48;;;;;;;;;;;;;;;;;;5069752;28;20413;-73
2023/05/28 15:45:13;;;;;;;;;;;;;;;;;;5069412;28;20342;-72
2023/05/28 15:47:38;;;;;;;;;;;;;;;;;;5069148;28;19962;-73
2023/05/28 15:50:03;;;;;;;;;;;;;;;;;;5069041;28;19912;-72
2023/05/28 15:52:29;;;;;;;;;;;;;;;;;;5069404;28;19912;-73
2023/05/28 15:54:54;;;;;;;;;;;;;;;;;;5068974;28;19977;-73
2023/05/28 15:57:20;;;;;;;;;;;;;;;;;;5069253;28;19951;-72
2023/05/28 15:59:45;;;;;;;;;;;;;;;;;;5073501;28;19955;-74
2023/05/28 16:02:11;;;;;;;;;;;;;;;;;;5050137;28;19933;-72
2023/05/28 16:04:36;;;;;;;;;;;;;;;;;;5067227;28;19909;-72
2023/05/28 16:07:01;;;;;;;;;;;;;;;;;;5066969;28;20330;-72
2023/05/28 16:09:27;;;;;;;;;;;;;;;;;;5051498;28;19967;-72
2023/05/28 16:11:52;;;;;;;;;;;;;;;;;;5067548;28;19971;-72
2023/05/28 16:14:17;;;;;;;;;;;;;;;;;;5063652;28;19912;-72
2023/05/28 16:16:43;;;;;;;;;;;;;;;;;;5068926;28;19909;-72
2023/05/28 16:19:08;;;;;;;;;;;;;;;;;;5067754;28;19916;-72
2023/05/28 16:21:34;;;;;;;;;;;;;;;;;;5066297;28;19914;-73
2023/05/28 16:23:59;;;;;;;;;;;;;;;;;;5068839;28;19917;-72
2023/05/28 16:26:26;;;;;;;;;;;;;;;;;;5068441;28;19931;-73
2023/05/28 16:28:52;;;;;;;;;;;;;;;;;;5068958;28;19908;-73
2023/05/28 16:31:17;;;;;;;;;;;;;;;;;;5069158;28;19922;-73
2023/05/28 16:33:43;;;;;;;;;;;;;;;;;;5068647;28;19912;-72
2023/05/28 16:36:08;;;;;;;;;;;;;;;;;;5050531;28;20598;-73
2023/05/28 16:38:33;;;;;;;;;;;;;;;;;;5068125;28;19908;-73
2023/05/28 16:40:58;;;;;;;;;;;;;;;;;;5048808;28;19916;-73